sensor_id;sensor_type;location;lat;lon;timestamp;P1;durP1;ratioP1;P2;durP2;ratioP2
21681;SDS011;11002;48.256;10.084;2022-09-12T00:01:36;0.90;;;0.70;;
21681;SDS011;11002;48.256;10.084;2022-09-12T00:04:03;0.70;;;0.70;;
21681;SDS011;11002;48.256;10.084;2022-09-12T00:06:31;0.85;;;0.82;;
21681;SDS011;11002;48.256;10.084;2022-09-12T00:09:01;0.98;;;0.85;;
21681;SDS011;11002;48.256;10.084;2022-09-12T00:11:30;0.80;;;0.80;;
21681;SDS011;11002;48.256;10.084;2022-09-12T00:13:58;1.10;;;1.00;;
21681;SDS011;11002;48.256;10.084;2022-09-12T00:16:27;0.80;;;0.80;;
21681;SDS011;11002;48.256;10.084;2022-09-12T00:18:57;1.17;;;1.00;;
21681;SDS011;11002;48.256;10.084;2022-09-12T00:21:24;1.17;;;0.68;;
21681;SDS011;11002;48.256;10.084;2022-09-12T00:23:52;0.88;;;0.82;;
21681;SDS011;11002;48.256;10.084;2022-09-12T00:26:20;0.70;;;0.70;;
21681;SDS011;11002;48.256;10.084;2022-09-12T00:28:48;0.80;;;0.80;;
21681;SDS011;11002;48.256;10.084;2022-09-12T00:31:16;0.68;;;0.68;;
21681;SDS011;11002;48.256;10.084;2022-09-12T00:33:44;0.90;;;0.80;;
21681;SDS011;11002;48.256;10.084;2022-09-12T00:36:14;1.10;;;1.00;;
21681;SDS011;11002;48.256;10.084;2022-09-12T00:38:43;0.90;;;0.90;;
21681;SDS011;11002;48.256;10.084;2022-09-12T00:41:12;0.82;;;0.82;;
21681;SDS011;11002;48.256;10.084;2022-09-12T00:43:43;0.85;;;0.85;;
21681;SDS011;11002;48.256;10.084;2022-09-12T00:46:20;0.70;;;0.70;;
21681;SDS011;11002;48.256;10.084;2022-09-12T00:48:55;0.80;;;0.73;;
21681;SDS011;11002;48.256;10.084;2022-09-12T00:51:28;0.80;;;0.80;;
21681;SDS011;11002;48.256;10.084;2022-09-12T00:53:59;0.80;;;0.80;;
21681;SDS011;11002;48.256;10.084;2022-09-12T00:56:31;1.00;;;1.00;;
21681;SDS011;11002;48.256;10.084;2022-09-12T00:59:03;0.88;;;0.88;;
21681;SDS011;11002;48.256;10.084;2022-09-12T01:01:36;0.98;;;0.90;;
21681;SDS011;11002;48.256;10.084;2022-09-12T01:04:06;0.80;;;0.80;;
21681;SDS011;11002;48.256;10.084;2022-09-12T01:06:36;0.85;;;0.85;;
21681;SDS011;11002;48.256;10.084;2022-09-12T01:09:05;0.70;;;0.70;;
21681;SDS011;11002;48.256;10.084;2022-09-12T01:11:33;1.00;;;0.80;;
21681;SDS011;11002;48.256;10.084;2022-09-12T01:14:04;0.88;;;0.88;;
21681;SDS011;11002;48.256;10.084;2022-09-12T01:16:33;0.88;;;0.88;;
21681;SDS011;11002;48.256;10.084;2022-09-12T01:19:04;0.80;;;0.80;;
21681;SDS011;11002;48.256;10.084;2022-09-12T01:21:49;0.80;;;0.80;;
21681;SDS011;11002;48.256;10.084;2022-09-12T01:24:32;0.90;;;0.90;;
21681;SDS011;11002;48.256;10.084;2022-09-12T01:27:15;0.73;;;0.73;;
21681;SDS011;11002;48.256;10.084;2022-09-12T01:29:57;0.88;;;0.88;;
21681;SDS011;11002;48.256;10.084;2022-09-12T01:32:46;0.80;;;0.65;;
21681;SDS011;11002;48.256;10.084;2022-09-12T01:35:23;0.73;;;0.73;;
21681;SDS011;11002;48.256;10.084;2022-09-12T01:38:02;1.15;;;0.90;;
21681;SDS011;11002;48.256;10.084;2022-09-12T01:40:39;0.70;;;0.70;;
21681;SDS011;11002;48.256;10.084;2022-09-12T01:43:15;0.57;;;0.52;;
21681;SDS011;11002;48.256;10.084;2022-09-12T01:45:48;0.88;;;0.88;;
21681;SDS011;11002;48.256;10.084;2022-09-12T01:48:22;0.80;;;0.80;;
21681;SDS011;11002;48.256;10.084;2022-09-12T01:50:55;0.80;;;0.80;;
21681;SDS011;11002;48.256;10.084;2022-09-12T01:53:32;0.77;;;0.77;;
21681;SDS011;11002;48.256;10.084;2022-09-12T01:56:05;2.00;;;0.70;;
21681;SDS011;11002;48.256;10.084;2022-09-12T01:58:38;0.73;;;0.70;;
21681;SDS011;11002;48.256;10.084;2022-09-12T02:01:12;0.82;;;0.82;;
21681;SDS011;11002;48.256;10.084;2022-09-12T02:03:42;0.60;;;0.60;;
21681;SDS011;11002;48.256;10.084;2022-09-12T02:06:14;0.70;;;0.70;;
21681;SDS011;11002;48.256;10.084;2022-09-12T02:08:46;0.82;;;0.82;;
21681;SDS011;11002;48.256;10.084;2022-09-12T02:11:16;0.60;;;0.60;;
21681;SDS011;11002;48.256;10.084;2022-09-12T02:13:47;1.00;;;0.75;;
21681;SDS011;11002;48.256;10.084;2022-09-12T02:16:22;0.80;;;0.80;;
21681;SDS011;11002;48.256;10.084;2022-09-12T02:18:54;0.60;;;0.60;;
21681;SDS011;11002;48.256;10.084;2022-09-12T02:21:25;1.65;;;0.80;;
21681;SDS011;11002;48.256;10.084;2022-09-12T02:23:58;0.75;;;0.75;;
21681;SDS011;11002;48.256;10.084;2022-09-12T02:26:28;0.90;;;0.90;;
21681;SDS011;11002;48.256;10.084;2022-09-12T02:29:00;0.73;;;0.70;;
21681;SDS011;11002;48.256;10.084;2022-09-12T02:31:31;0.70;;;0.70;;
21681;SDS011;11002;48.256;10.084;2022-09-12T02:34:14;0.70;;;0.70;;
21681;SDS011;11002;48.256;10.084;2022-09-12T02:36:58;1.10;;;1.10;;
21681;SDS011;11002;48.256;10.084;2022-09-12T02:39:33;0.73;;;0.73;;
21681;SDS011;11002;48.256;10.084;2022-09-12T02:42:01;0.90;;;0.90;;
21681;SDS011;11002;48.256;10.084;2022-09-12T02:44:29;0.73;;;0.73;;
21681;SDS011;11002;48.256;10.084;2022-09-12T02:47:01;1.23;;;1.00;;
21681;SDS011;11002;48.256;10.084;2022-09-12T02:49:33;0.85;;;0.85;;
21681;SDS011;11002;48.256;10.084;2022-09-12T02:52:00;0.70;;;0.70;;
21681;SDS011;11002;48.256;10.084;2022-09-12T02:54:28;1.10;;;0.80;;
21681;SDS011;11002;48.256;10.084;2022-09-12T02:56:56;4.05;;;0.90;;
21681;SDS011;11002;48.256;10.084;2022-09-12T02:59:24;0.80;;;0.80;;
21681;SDS011;11002;48.256;10.084;2022-09-12T03:01:58;0.70;;;0.70;;
21681;SDS011;11002;48.256;10.084;2022-09-12T03:04:58;0.90;;;0.90;;
21681;SDS011;11002;48.256;10.084;2022-09-12T03:07:45;0.75;;;0.75;;
21681;SDS011;11002;48.256;10.084;2022-09-12T03:10:31;0.80;;;0.80;;
21681;SDS011;11002;48.256;10.084;2022-09-12T03:13:08;0.80;;;0.80;;
21681;SDS011;11002;48.256;10.084;2022-09-12T03:15:49;1.05;;;0.95;;
21681;SDS011;11002;48.256;10.084;2022-09-12T03:18:30;0.88;;;0.70;;
21681;SDS011;11002;48.256;10.084;2022-09-12T03:21:07;1.17;;;1.08;;
21681;SDS011;11002;48.256;10.084;2022-09-12T03:23:40;0.80;;;0.80;;
21681;SDS011;11002;48.256;10.084;2022-09-12T03:26:14;0.75;;;0.70;;
21681;SDS011;11002;48.256;10.084;2022-09-12T03:28:46;0.90;;;0.90;;
21681;SDS011;11002;48.256;10.084;2022-09-12T03:31:14;0.73;;;0.73;;
21681;SDS011;11002;48.256;10.084;2022-09-12T03:33:45;0.75;;;0.75;;
21681;SDS011;11002;48.256;10.084;2022-09-12T03:36:13;1.00;;;0.90;;
21681;SDS011;11002;48.256;10.084;2022-09-12T03:38:44;0.80;;;0.80;;
21681;SDS011;11002;48.256;10.084;2022-09-12T03:41:11;1.02;;;0.95;;
21681;SDS011;11002;48.256;10.084;2022-09-12T03:43:38;0.70;;;0.70;;
21681;SDS011;11002;48.256;10.084;2022-09-12T03:46:06;0.68;;;0.68;;
21681;SDS011;11002;48.256;10.084;2022-09-12T03:48:33;1.13;;;0.80;;
21681;SDS011;11002;48.256;10.084;2022-09-12T03:51:02;1.13;;;0.98;;
21681;SDS011;11002;48.256;10.084;2022-09-12T03:53:31;0.68;;;0.68;;
21681;SDS011;11002;48.256;10.084;2022-09-12T03:55:59;0.80;;;0.80;;
21681;SDS011;11002;48.256;10.084;2022-09-12T03:58:30;0.70;;;0.70;;
21681;SDS011;11002;48.256;10.084;2022-09-12T04:00:58;0.70;;;0.70;;
21681;SDS011;11002;48.256;10.084;2022-09-12T04:03:25;1.10;;;0.93;;
21681;SDS011;11002;48.256;10.084;2022-09-12T04:05:53;0.93;;;0.77;;
21681;SDS011;11002;48.256;10.084;2022-09-12T04:08:24;1.63;;;0.82;;
21681;SDS011;11002;48.256;10.084;2022-09-12T04:10:51;0.60;;;0.60;;
21681;SDS011;11002;48.256;10.084;2022-09-12T04:13:19;0.68;;;0.68;;
21681;SDS011;11002;48.256;10.084;2022-09-12T04:15:54;0.80;;;0.80;;
21681;SDS011;11002;48.256;10.084;2022-09-12T04:18:22;0.90;;;0.90;;
21681;SDS011;11002;48.256;10.084;2022-09-12T04:20:49;0.60;;;0.60;;
21681;SDS011;11002;48.256;10.084;2022-09-12T04:23:16;0.63;;;0.63;;
21681;SDS011;11002;48.256;10.084;2022-09-12T04:25:51;0.88;;;0.63;;
21681;SDS011;11002;48.256;10.084;2022-09-12T04:28:19;0.90;;;0.90;;
21681;SDS011;11002;48.256;10.084;2022-09-12T04:30:47;0.65;;;0.65;;
21681;SDS011;11002;48.256;10.084;2022-09-12T04:33:14;0.80;;;0.80;;
21681;SDS011;11002;48.256;10.084;2022-09-12T04:35:41;0.93;;;0.93;;
21681;SDS011;11002;48.256;10.084;2022-09-12T04:38:09;0.60;;;0.60;;
21681;SDS011;11002;48.256;10.084;2022-09-12T04:40:37;0.80;;;0.80;;
21681;SDS011;11002;48.256;10.084;2022-09-12T04:43:06;0.73;;;0.73;;
21681;SDS011;11002;48.256;10.084;2022-09-12T04:45:33;0.88;;;0.88;;
21681;SDS011;11002;48.256;10.084;2022-09-12T04:48:01;0.60;;;0.60;;
21681;SDS011;11002;48.256;10.084;2022-09-12T04:50:28;0.90;;;0.90;;
21681;SDS011;11002;48.256;10.084;2022-09-12T04:52:55;0.60;;;0.60;;
21681;SDS011;11002;48.256;10.084;2022-09-12T04:55:22;0.77;;;0.77;;
21681;SDS011;11002;48.256;10.084;2022-09-12T04:57:50;0.70;;;0.70;;
21681;SDS011;11002;48.256;10.084;2022-09-12T05:00:19;0.55;;;0.55;;
21681;SDS011;11002;48.256;10.084;2022-09-12T05:02:47;0.80;;;0.80;;
21681;SDS011;11002;48.256;10.084;2022-09-12T05:05:14;0.70;;;0.70;;
21681;SDS011;11002;48.256;10.084;2022-09-12T05:07:42;0.70;;;0.70;;
21681;SDS011;11002;48.256;10.084;2022-09-12T05:10:09;0.63;;;0.63;;
21681;SDS011;11002;48.256;10.084;2022-09-12T05:12:37;0.68;;;0.68;;
21681;SDS011;11002;48.256;10.084;2022-09-12T05:15:05;0.57;;;0.57;;
21681;SDS011;11002;48.256;10.084;2022-09-12T05:17:34;0.70;;;0.70;;
21681;SDS011;11002;48.256;10.084;2022-09-12T05:20:02;0.50;;;0.50;;
21681;SDS011;11002;48.256;10.084;2022-09-12T05:22:30;0.50;;;0.50;;
21681;SDS011;11002;48.256;10.084;2022-09-12T05:24:57;0.65;;;0.65;;
21681;SDS011;11002;48.256;10.084;2022-09-12T05:27:24;0.80;;;0.80;;
21681;SDS011;11002;48.256;10.084;2022-09-12T05:29:52;0.77;;;0.75;;
21681;SDS011;11002;48.256;10.084;2022-09-12T05:32:19;0.50;;;0.50;;
21681;SDS011;11002;48.256;10.084;2022-09-12T05:34:48;0.57;;;0.52;;
21681;SDS011;11002;48.256;10.084;2022-09-12T05:37:15;0.60;;;0.60;;
21681;SDS011;11002;48.256;10.084;2022-09-12T05:39:42;0.75;;;0.70;;
21681;SDS011;11002;48.256;10.084;2022-09-12T05:42:10;0.80;;;0.80;;
21681;SDS011;11002;48.256;10.084;2022-09-12T05:44:37;0.70;;;0.70;;
21681;SDS011;11002;48.256;10.084;2022-09-12T05:47:05;0.70;;;0.70;;
21681;SDS011;11002;48.256;10.084;2022-09-12T05:49:32;0.70;;;0.70;;
21681;SDS011;11002;48.256;10.084;2022-09-12T05:52:02;0.60;;;0.60;;
21681;SDS011;11002;48.256;10.084;2022-09-12T05:54:30;0.70;;;0.70;;
21681;SDS011;11002;48.256;10.084;2022-09-12T05:56:57;0.50;;;0.50;;
21681;SDS011;11002;48.256;10.084;2022-09-12T05:59:25;0.80;;;0.77;;
21681;SDS011;11002;48.256;10.084;2022-09-12T06:01:52;0.73;;;0.73;;
21681;SDS011;11002;48.256;10.084;2022-09-12T06:04:20;0.93;;;0.70;;
21681;SDS011;11002;48.256;10.084;2022-09-12T06:06:48;0.70;;;0.70;;
21681;SDS011;11002;48.256;10.084;2022-09-12T06:09:17;0.45;;;0.45;;
21681;SDS011;11002;48.256;10.084;2022-09-12T06:11:45;0.60;;;0.60;;
21681;SDS011;11002;48.256;10.084;2022-09-12T06:14:14;0.60;;;0.60;;
21681;SDS011;11002;48.256;10.084;2022-09-12T06:16:44;0.60;;;0.60;;
21681;SDS011;11002;48.256;10.084;2022-09-12T06:19:12;0.60;;;0.60;;
21681;SDS011;11002;48.256;10.084;2022-09-12T06:21:41;0.73;;;0.73;;
21681;SDS011;11002;48.256;10.084;2022-09-12T06:24:09;0.50;;;0.50;;
21681;SDS011;11002;48.256;10.084;2022-09-12T06:26:38;0.57;;;0.57;;
21681;SDS011;11002;48.256;10.084;2022-09-12T06:29:05;0.60;;;0.60;;
21681;SDS011;11002;48.256;10.084;2022-09-12T06:31:33;0.68;;;0.65;;
21681;SDS011;11002;48.256;10.084;2022-09-12T06:34:02;0.60;;;0.60;;
21681;SDS011;11002;48.256;10.084;2022-09-12T06:36:31;0.65;;;0.65;;
21681;SDS011;11002;48.256;10.084;2022-09-12T06:39:01;0.50;;;0.50;;
21681;SDS011;11002;48.256;10.084;2022-09-12T06:41:29;0.88;;;0.77;;
21681;SDS011;11002;48.256;10.084;2022-09-12T06:43:59;0.50;;;0.50;;
21681;SDS011;11002;48.256;10.084;2022-09-12T06:46:27;1.58;;;0.80;;
21681;SDS011;11002;48.256;10.084;2022-09-12T06:48:55;0.50;;;0.50;;
21681;SDS011;11002;48.256;10.084;2022-09-12T06:51:23;0.60;;;0.60;;
21681;SDS011;11002;48.256;10.084;2022-09-12T06:53:53;0.68;;;0.50;;
21681;SDS011;11002;48.256;10.084;2022-09-12T06:56:21;0.68;;;0.68;;
21681;SDS011;11002;48.256;10.084;2022-09-12T06:58:51;0.77;;;0.77;;
21681;SDS011;11002;48.256;10.084;2022-09-12T07:01:21;0.50;;;0.50;;
21681;SDS011;11002;48.256;10.084;2022-09-12T07:03:50;0.50;;;0.50;;
21681;SDS011;11002;48.256;10.084;2022-09-12T07:06:22;0.50;;;0.50;;
21681;SDS011;11002;48.256;10.084;2022-09-12T07:08:50;0.50;;;0.50;;
21681;SDS011;11002;48.256;10.084;2022-09-12T07:11:19;0.50;;;0.50;;
21681;SDS011;11002;48.256;10.084;2022-09-12T07:13:48;0.65;;;0.65;;
21681;SDS011;11002;48.256;10.084;2022-09-12T07:16:16;0.60;;;0.60;;
21681;SDS011;11002;48.256;10.084;2022-09-12T07:18:48;0.60;;;0.60;;
21681;SDS011;11002;48.256;10.084;2022-09-12T07:21:16;0.60;;;0.60;;
21681;SDS011;11002;48.256;10.084;2022-09-12T07:23:44;0.52;;;0.52;;
21681;SDS011;11002;48.256;10.084;2022-09-12T07:26:12;0.50;;;0.50;;
21681;SDS011;11002;48.256;10.084;2022-09-12T07:28:40;0.70;;;0.70;;
21681;SDS011;11002;48.256;10.084;2022-09-12T07:31:08;0.57;;;0.57;;
21681;SDS011;11002;48.256;10.084;2022-09-12T07:33:36;3.72;;;0.80;;
21681;SDS011;11002;48.256;10.084;2022-09-12T07:36:07;2.63;;;0.80;;
21681;SDS011;11002;48.256;10.084;2022-09-12T07:38:37;1.88;;;0.60;;
21681;SDS011;11002;48.256;10.084;2022-09-12T07:41:09;1.08;;;0.70;;
21681;SDS011;11002;48.256;10.084;2022-09-12T07:43:36;2.88;;;0.82;;
21681;SDS011;11002;48.256;10.084;2022-09-12T07:46:04;1.08;;;0.50;;
21681;SDS011;11002;48.256;10.084;2022-09-12T07:48:32;1.05;;;0.60;;
21681;SDS011;11002;48.256;10.084;2022-09-12T07:51:00;1.45;;;0.85;;
21681;SDS011;11002;48.256;10.084;2022-09-12T07:56:40;1.30;;;0.90;;
21681;SDS011;11002;48.256;10.084;2022-09-12T07:59:07;2.90;;;0.80;;
21681;SDS011;11002;48.256;10.084;2022-09-12T08:01:35;2.42;;;0.80;;
21681;SDS011;11002;48.256;10.084;2022-09-12T08:04:04;3.38;;;0.80;;
21681;SDS011;11002;48.256;10.084;2022-09-12T08:06:32;1.02;;;0.65;;
21681;SDS011;11002;48.256;10.084;2022-09-12T08:09:02;0.80;;;0.80;;
21681;SDS011;11002;48.256;10.084;2022-09-12T08:11:30;2.05;;;0.63;;
21681;SDS011;11002;48.256;10.084;2022-09-12T08:13:59;0.85;;;0.70;;
21681;SDS011;11002;48.256;10.084;2022-09-12T08:16:29;1.00;;;0.60;;
21681;SDS011;11002;48.256;10.084;2022-09-12T08:18:58;3.42;;;1.00;;
21681;SDS011;11002;48.256;10.084;2022-09-12T08:21:27;0.60;;;0.60;;
21681;SDS011;11002;48.256;10.084;2022-09-12T08:23:56;0.75;;;0.70;;
21681;SDS011;11002;48.256;10.084;2022-09-12T08:26:25;1.02;;;0.90;;
21681;SDS011;11002;48.256;10.084;2022-09-12T08:28:53;1.30;;;0.90;;
21681;SDS011;11002;48.256;10.084;2022-09-12T08:31:23;0.80;;;0.80;;
21681;SDS011;11002;48.256;10.084;2022-09-12T08:33:53;1.15;;;0.68;;
21681;SDS011;11002;48.256;10.084;2022-09-12T08:36:23;0.80;;;0.80;;
21681;SDS011;11002;48.256;10.084;2022-09-12T08:38:53;0.57;;;0.57;;
21681;SDS011;11002;48.256;10.084;2022-09-12T08:41:23;1.10;;;0.80;;
21681;SDS011;11002;48.256;10.084;2022-09-12T08:44:00;0.73;;;0.70;;
21681;SDS011;11002;48.256;10.084;2022-09-12T08:47:06;0.80;;;0.70;;
21681;SDS011;11002;48.256;10.084;2022-09-12T08:49:49;1.77;;;0.95;;
21681;SDS011;11002;48.256;10.084;2022-09-12T08:52:24;1.10;;;0.95;;
21681;SDS011;11002;48.256;10.084;2022-09-12T08:54:55;1.00;;;0.88;;
21681;SDS011;11002;48.256;10.084;2022-09-12T08:57:23;0.80;;;0.80;;
21681;SDS011;11002;48.256;10.084;2022-09-12T08:59:50;1.02;;;0.90;;
21681;SDS011;11002;48.256;10.084;2022-09-12T09:05:21;0.75;;;0.70;;
21681;SDS011;11002;48.256;10.084;2022-09-12T09:10:48;0.90;;;0.90;;
21681;SDS011;11002;48.256;10.084;2022-09-12T09:13:26;0.85;;;0.85;;
21681;SDS011;11002;48.256;10.084;2022-09-12T09:16:21;0.80;;;0.80;;
21681;SDS011;11002;48.256;10.084;2022-09-12T09:18:56;1.25;;;1.15;;
21681;SDS011;11002;48.256;10.084;2022-09-12T09:21:28;1.40;;;1.17;;
21681;SDS011;11002;48.256;10.084;2022-09-12T09:23:59;0.95;;;0.90;;
21681;SDS011;11002;48.256;10.084;2022-09-12T09:26:34;1.35;;;1.05;;
21681;SDS011;11002;48.256;10.084;2022-09-12T09:29:13;1.42;;;1.20;;
21681;SDS011;11002;48.256;10.084;2022-09-12T09:31:43;2.42;;;1.30;;
21681;SDS011;11002;48.256;10.084;2022-09-12T09:34:17;2.35;;;0.98;;
21681;SDS011;11002;48.256;10.084;2022-09-12T09:36:50;2.50;;;0.90;;
21681;SDS011;11002;48.256;10.084;2022-09-12T09:39:28;1.50;;;0.95;;
21681;SDS011;11002;48.256;10.084;2022-09-12T09:42:10;3.67;;;1.17;;
21681;SDS011;11002;48.256;10.084;2022-09-12T09:44:44;3.95;;;1.08;;
21681;SDS011;11002;48.256;10.084;2022-09-12T09:47:13;1.35;;;0.93;;
21681;SDS011;11002;48.256;10.084;2022-09-12T09:49:42;1.45;;;0.82;;
21681;SDS011;11002;48.256;10.084;2022-09-12T09:52:10;2.15;;;0.80;;
21681;SDS011;11002;48.256;10.084;2022-09-12T09:54:43;1.35;;;0.80;;
21681;SDS011;11002;48.256;10.084;2022-09-12T10:00:21;1.77;;;1.08;;
21681;SDS011;11002;48.256;10.084;2022-09-12T10:02:58;0.90;;;0.73;;
21681;SDS011;11002;48.256;10.084;2022-09-12T10:05:34;1.67;;;0.73;;
21681;SDS011;11002;48.256;10.084;2022-09-12T10:08:10;2.35;;;0.73;;
21681;SDS011;11002;48.256;10.084;2022-09-12T10:10:54;2.50;;;1.20;;
21681;SDS011;11002;48.256;10.084;2022-09-12T10:13:26;2.72;;;0.93;;
21681;SDS011;11002;48.256;10.084;2022-09-12T10:16:00;3.28;;;1.00;;
21681;SDS011;11002;48.256;10.084;2022-09-12T10:18:35;0.80;;;0.75;;
21681;SDS011;11002;48.256;10.084;2022-09-12T10:21:20;0.85;;;0.70;;
21681;SDS011;11002;48.256;10.084;2022-09-12T10:23:56;3.40;;;1.20;;
21681;SDS011;11002;48.256;10.084;2022-09-12T10:26:48;1.50;;;0.90;;
21681;SDS011;11002;48.256;10.084;2022-09-12T10:29:20;2.05;;;0.90;;
21681;SDS011;11002;48.256;10.084;2022-09-12T10:31:50;3.25;;;0.93;;
21681;SDS011;11002;48.256;10.084;2022-09-12T10:34:21;1.35;;;1.00;;
21681;SDS011;11002;48.256;10.084;2022-09-12T10:39:27;2.80;;;0.88;;
21681;SDS011;11002;48.256;10.084;2022-09-12T10:41:55;1.92;;;0.90;;
21681;SDS011;11002;48.256;10.084;2022-09-12T10:44:23;1.40;;;0.88;;
21681;SDS011;11002;48.256;10.084;2022-09-12T10:46:52;2.08;;;0.93;;
21681;SDS011;11002;48.256;10.084;2022-09-12T10:49:21;0.80;;;0.80;;
21681;SDS011;11002;48.256;10.084;2022-09-12T10:51:54;0.82;;;0.70;;
21681;SDS011;11002;48.256;10.084;2022-09-12T10:54:26;1.13;;;0.80;;
21681;SDS011;11002;48.256;10.084;2022-09-12T10:57:04;1.35;;;1.00;;
21681;SDS011;11002;48.256;10.084;2022-09-12T10:59:57;1.25;;;0.90;;
21681;SDS011;11002;48.256;10.084;2022-09-12T11:02:36;1.40;;;0.70;;
21681;SDS011;11002;48.256;10.084;2022-09-12T11:05:32;0.68;;;0.60;;
21681;SDS011;11002;48.256;10.084;2022-09-12T11:08:10;1.20;;;0.82;;
21681;SDS011;11002;48.256;10.084;2022-09-12T11:13:26;1.45;;;0.75;;
21681;SDS011;11002;48.256;10.084;2022-09-12T11:16:09;1.33;;;0.82;;
21681;SDS011;11002;48.256;10.084;2022-09-12T11:18:53;1.80;;;1.17;;
21681;SDS011;11002;48.256;10.084;2022-09-12T11:21:45;1.58;;;0.73;;
21681;SDS011;11002;48.256;10.084;2022-09-12T11:24:31;4.47;;;0.90;;
21681;SDS011;11002;48.256;10.084;2022-09-12T11:27:22;3.20;;;1.00;;
21681;SDS011;11002;48.256;10.084;2022-09-12T11:30:01;5.55;;;1.15;;
21681;SDS011;11002;48.256;10.084;2022-09-12T11:32:42;3.58;;;0.90;;
21681;SDS011;11002;48.256;10.084;2022-09-12T11:35:26;0.82;;;0.82;;
21681;SDS011;11002;48.256;10.084;2022-09-12T11:37:58;2.65;;;0.90;;
21681;SDS011;11002;48.256;10.084;2022-09-12T11:40:40;2.58;;;0.93;;
21681;SDS011;11002;48.256;10.084;2022-09-12T11:43:15;0.70;;;0.70;;
21681;SDS011;11002;48.256;10.084;2022-09-12T11:45:50;4.28;;;0.82;;
21681;SDS011;11002;48.256;10.084;2022-09-12T11:48:21;2.03;;;1.00;;
21681;SDS011;11002;48.256;10.084;2022-09-12T11:50:56;3.40;;;1.08;;
21681;SDS011;11002;48.256;10.084;2022-09-12T11:53:27;2.53;;;0.85;;
21681;SDS011;11002;48.256;10.084;2022-09-12T11:56:01;1.10;;;0.80;;
21681;SDS011;11002;48.256;10.084;2022-09-12T11:58:32;1.35;;;0.80;;
21681;SDS011;11002;48.256;10.084;2022-09-12T12:01:02;0.68;;;0.68;;
21681;SDS011;11002;48.256;10.084;2022-09-12T12:03:39;1.88;;;0.60;;
21681;SDS011;11002;48.256;10.084;2022-09-12T12:06:10;0.95;;;0.70;;
21681;SDS011;11002;48.256;10.084;2022-09-12T12:08:43;1.58;;;0.70;;
21681;SDS011;11002;48.256;10.084;2022-09-12T12:11:13;1.45;;;0.88;;
21681;SDS011;11002;48.256;10.084;2022-09-12T12:13:45;1.77;;;0.75;;
21681;SDS011;11002;48.256;10.084;2022-09-12T12:16:19;1.25;;;0.70;;
21681;SDS011;11002;48.256;10.084;2022-09-12T12:18:52;1.20;;;0.80;;
21681;SDS011;11002;48.256;10.084;2022-09-12T12:21:29;0.98;;;0.88;;
21681;SDS011;11002;48.256;10.084;2022-09-12T12:24:19;1.35;;;0.80;;
21681;SDS011;11002;48.256;10.084;2022-09-12T12:26:59;1.30;;;0.52;;
21681;SDS011;11002;48.256;10.084;2022-09-12T12:29:39;2.15;;;0.88;;
21681;SDS011;11002;48.256;10.084;2022-09-12T12:32:17;1.08;;;0.60;;
21681;SDS011;11002;48.256;10.084;2022-09-12T12:34:49;1.77;;;1.10;;
21681;SDS011;11002;48.256;10.084;2022-09-12T12:40:24;4.18;;;1.00;;
21681;SDS011;11002;48.256;10.084;2022-09-12T12:42:59;1.30;;;0.70;;
21681;SDS011;11002;48.256;10.084;2022-09-12T12:48:28;1.38;;;0.75;;
21681;SDS011;11002;48.256;10.084;2022-09-12T12:51:13;1.10;;;0.95;;
21681;SDS011;11002;48.256;10.084;2022-09-12T12:53:53;0.77;;;0.70;;
21681;SDS011;11002;48.256;10.084;2022-09-12T12:56:25;3.33;;;0.80;;
21681;SDS011;11002;48.256;10.084;2022-09-12T12:59:00;0.85;;;0.57;;
21681;SDS011;11002;48.256;10.084;2022-09-12T13:01:32;1.80;;;0.73;;
21681;SDS011;11002;48.256;10.084;2022-09-12T13:04:10;0.73;;;0.43;;
21681;SDS011;11002;48.256;10.084;2022-09-12T13:06:40;2.28;;;0.77;;
21681;SDS011;11002;48.256;10.084;2022-09-12T13:09:17;0.80;;;0.70;;
21681;SDS011;11002;48.256;10.084;2022-09-12T13:11:54;0.70;;;0.60;;
21681;SDS011;11002;48.256;10.084;2022-09-12T13:17:24;3.38;;;0.80;;
21681;SDS011;11002;48.256;10.084;2022-09-12T13:20:01;1.10;;;0.50;;
21681;SDS011;11002;48.256;10.084;2022-09-12T13:22:39;1.77;;;0.70;;
21681;SDS011;11002;48.256;10.084;2022-09-12T13:25:17;1.30;;;0.55;;
21681;SDS011;11002;48.256;10.084;2022-09-12T13:28:00;0.70;;;0.70;;
21681;SDS011;11002;48.256;10.084;2022-09-12T13:30:31;4.33;;;1.00;;
21681;SDS011;11002;48.256;10.084;2022-09-12T13:33:14;2.28;;;0.82;;
21681;SDS011;11002;48.256;10.084;2022-09-12T13:41:01;1.67;;;0.70;;
21681;SDS011;11002;48.256;10.084;2022-09-12T13:43:42;1.30;;;0.80;;
21681;SDS011;11002;48.256;10.084;2022-09-12T13:46:12;2.72;;;0.82;;
21681;SDS011;11002;48.256;10.084;2022-09-12T13:48:43;0.82;;;0.75;;
21681;SDS011;11002;48.256;10.084;2022-09-12T13:51:18;2.22;;;0.85;;
21681;SDS011;11002;48.256;10.084;2022-09-12T13:53:49;1.00;;;0.60;;
21681;SDS011;11002;48.256;10.084;2022-09-12T13:56:20;0.80;;;0.73;;
21681;SDS011;11002;48.256;10.084;2022-09-12T13:58:51;2.05;;;0.77;;
21681;SDS011;11002;48.256;10.084;2022-09-12T14:01:21;1.27;;;1.05;;
21681;SDS011;11002;48.256;10.084;2022-09-12T14:03:51;1.08;;;0.60;;
21681;SDS011;11002;48.256;10.084;2022-09-12T14:06:41;3.80;;;1.08;;
21681;SDS011;11002;48.256;10.084;2022-09-12T14:09:14;0.77;;;0.70;;
21681;SDS011;11002;48.256;10.084;2022-09-12T14:11:47;1.33;;;0.80;;
21681;SDS011;11002;48.256;10.084;2022-09-12T14:14:18;1.48;;;0.70;;
21681;SDS011;11002;48.256;10.084;2022-09-12T14:16:52;2.78;;;0.93;;
21681;SDS011;11002;48.256;10.084;2022-09-12T14:19:22;2.83;;;1.10;;
21681;SDS011;11002;48.256;10.084;2022-09-12T14:21:51;1.20;;;0.80;;
21681;SDS011;11002;48.256;10.084;2022-09-12T14:24:19;0.90;;;0.90;;
21681;SDS011;11002;48.256;10.084;2022-09-12T14:26:49;4.38;;;1.05;;
21681;SDS011;11002;48.256;10.084;2022-09-12T14:29:19;8.10;;;1.40;;
21681;SDS011;11002;48.256;10.084;2022-09-12T14:31:58;5.50;;;0.95;;
21681;SDS011;11002;48.256;10.084;2022-09-12T14:34:29;3.20;;;0.82;;
21681;SDS011;11002;48.256;10.084;2022-09-12T14:36:57;3.08;;;0.95;;
21681;SDS011;11002;48.256;10.084;2022-09-12T14:39:27;3.70;;;0.80;;
21681;SDS011;11002;48.256;10.084;2022-09-12T14:42:02;1.58;;;0.70;;
21681;SDS011;11002;48.256;10.084;2022-09-12T14:44:32;6.47;;;1.17;;
21681;SDS011;11002;48.256;10.084;2022-09-12T14:47:09;6.07;;;1.25;;
21681;SDS011;11002;48.256;10.084;2022-09-12T14:49:40;13.93;;;1.30;;
21681;SDS011;11002;48.256;10.084;2022-09-12T14:52:19;10.90;;;1.58;;
21681;SDS011;11002;48.256;10.084;2022-09-12T14:54:56;9.15;;;1.60;;
21681;SDS011;11002;48.256;10.084;2022-09-12T14:57:37;2.38;;;0.95;;
21681;SDS011;11002;48.256;10.084;2022-09-12T15:00:17;3.28;;;0.93;;
21681;SDS011;11002;48.256;10.084;2022-09-12T15:02:46;6.80;;;1.25;;
21681;SDS011;11002;48.256;10.084;2022-09-12T15:05:17;9.63;;;1.00;;
21681;SDS011;11002;48.256;10.084;2022-09-12T15:07:51;7.60;;;1.52;;
21681;SDS011;11002;48.256;10.084;2022-09-12T15:10:24;5.13;;;1.27;;
21681;SDS011;11002;48.256;10.084;2022-09-12T15:13:03;4.80;;;1.02;;
21681;SDS011;11002;48.256;10.084;2022-09-12T15:15:39;3.17;;;1.20;;
21681;SDS011;11002;48.256;10.084;2022-09-12T15:18:07;4.50;;;0.98;;
21681;SDS011;11002;48.256;10.084;2022-09-12T15:20:36;4.18;;;1.10;;
21681;SDS011;11002;48.256;10.084;2022-09-12T15:23:05;2.28;;;1.10;;
21681;SDS011;11002;48.256;10.084;2022-09-12T15:25:38;2.40;;;1.10;;
21681;SDS011;11002;48.256;10.084;2022-09-12T15:28:08;5.03;;;1.10;;
21681;SDS011;11002;48.256;10.084;2022-09-12T15:30:41;3.13;;;1.00;;
21681;SDS011;11002;48.256;10.084;2022-09-12T15:33:09;7.32;;;1.08;;
21681;SDS011;11002;48.256;10.084;2022-09-12T15:35:38;3.10;;;0.68;;